createdAt,value
2022-09-21T00:01:39.047Z,7.43
2022-09-21T00:04:07.287Z,9.07
2022-09-21T00:06:37.270Z,6.60
2022-09-21T00:09:06.162Z,10.13
2022-09-21T00:11:35.213Z,9.87
2022-09-21T00:14:08.737Z,8.13
2022-09-21T00:16:37.410Z,7.73
2022-09-21T00:19:06.663Z,6.00
2022-09-21T00:21:35.338Z,6.70
2022-09-21T00:24:03.744Z,5.03
2022-09-21T00:26:32.461Z,5.43
2022-09-21T00:29:02.742Z,6.37
2022-09-21T00:31:33.300Z,5.13
2022-09-21T00:34:03.459Z,6.43
2022-09-21T00:36:31.578Z,7.33
2022-09-21T00:39:01.936Z,9.90
2022-09-21T00:41:33.098Z,7.63
2022-09-21T00:44:29.220Z,6.87
2022-09-21T00:47:02.604Z,4.77
2022-09-21T00:49:31.835Z,5.20
2022-09-21T00:52:03.006Z,7.70
2022-09-21T00:54:35.078Z,4.87
2022-09-21T00:57:03.747Z,7.47
2022-09-21T00:59:33.366Z,6.03
2022-09-21T01:02:02.850Z,4.90
2022-09-21T01:04:31.713Z,8.67
2022-09-21T01:07:04.041Z,8.37
2022-09-21T01:09:32.590Z,5.30
2022-09-21T01:12:11.046Z,5.57
2022-09-21T01:15:10.973Z,4.70
2022-09-21T01:17:47.152Z,3.90
2022-09-21T01:20:51.109Z,6.50
2022-09-21T01:23:39.098Z,4.73
2022-09-21T01:26:15.130Z,5.30
2022-09-21T01:29:11.136Z,5.83
2022-09-21T01:31:43.340Z,5.67
2022-09-21T01:34:17.054Z,5.53
2022-09-21T01:36:48.477Z,4.80
2022-09-21T01:39:20.731Z,6.07
2022-09-21T01:41:52.537Z,6.40
2022-09-21T01:44:24.627Z,6.97
2022-09-21T01:46:54.472Z,4.27
2022-09-21T01:49:26.923Z,5.10
2022-09-21T01:51:59.686Z,4.93
2022-09-21T01:54:33.655Z,6.17
2022-09-21T01:57:07.282Z,7.33
2022-09-21T01:59:47.816Z,5.37
2022-09-21T02:02:20.728Z,6.93
2022-09-21T02:04:48.925Z,5.27
2022-09-21T02:07:18.724Z,5.00
2022-09-21T02:09:48.068Z,4.80
2022-09-21T02:12:19.146Z,7.57
2022-09-21T02:14:51.172Z,4.73
2022-09-21T02:17:34.214Z,5.40
2022-09-21T02:20:12.459Z,6.63
2022-09-21T02:22:49.572Z,4.93
2022-09-21T02:25:22.213Z,5.47
2022-09-21T02:27:55.198Z,4.57
2022-09-21T02:30:26.363Z,4.80
2022-09-21T02:33:00.040Z,6.80
2022-09-21T02:35:36.638Z,9.50
2022-09-21T02:38:11.895Z,5.83
2022-09-21T02:40:44.877Z,4.83
2022-09-21T02:43:21.382Z,4.43
2022-09-21T02:45:55.277Z,6.47
2022-09-21T02:48:27.631Z,4.77
2022-09-21T02:50:58.671Z,5.20
2022-09-21T02:53:30.638Z,4.20
2022-09-21T02:56:02.888Z,5.13
2022-09-21T02:58:32.597Z,4.70
2022-09-21T03:01:02.338Z,5.97
2022-09-21T03:03:30.262Z,5.00
2022-09-21T03:05:58.279Z,8.13
2022-09-21T03:08:26.151Z,4.77
2022-09-21T03:10:54.734Z,8.47
2022-09-21T03:13:22.596Z,5.07
2022-09-21T03:15:50.531Z,5.67
2022-09-21T03:18:19.780Z,5.57
2022-09-21T03:20:47.644Z,8.30
2022-09-21T03:23:15.647Z,4.63
2022-09-21T03:25:46.056Z,7.90
2022-09-21T03:28:14.603Z,4.73
2022-09-21T03:30:42.537Z,5.53
2022-09-21T03:33:10.614Z,5.60
2022-09-21T03:35:40.372Z,5.50
2022-09-21T03:38:08.254Z,4.77
2022-09-21T03:40:36.481Z,4.93
2022-09-21T03:43:04.881Z,7.23
2022-09-21T03:45:32.744Z,5.20
2022-09-21T03:48:01.430Z,8.20
2022-09-21T03:50:30.303Z,6.37
2022-09-21T03:52:59.833Z,5.17
2022-09-21T03:55:29.700Z,5.83
2022-09-21T03:57:57.552Z,8.93
2022-09-21T04:00:25.624Z,6.00
2022-09-21T04:02:53.891Z,7.87
2022-09-21T04:05:22.257Z,4.80
2022-09-21T04:07:50.303Z,6.57
2022-09-21T04:10:23.377Z,5.43
2022-09-21T04:12:52.033Z,4.47
2022-09-21T04:15:38.363Z,5.47
2022-09-21T04:18:07.431Z,6.30
2022-09-21T04:20:35.311Z,5.83
2022-09-21T04:23:03.207Z,5.13
2022-09-21T04:25:32.708Z,4.73
2022-09-21T04:28:00.592Z,5.13
2022-09-21T04:30:29.022Z,5.43
2022-09-21T04:32:56.876Z,5.23
2022-09-21T04:35:24.839Z,5.83
2022-09-21T04:37:55.987Z,5.27
2022-09-21T04:40:24.266Z,5.23
2022-09-21T04:42:54.203Z,4.47
2022-09-21T04:45:22.375Z,5.97
2022-09-21T04:47:50.400Z,5.17
2022-09-21T04:50:19.368Z,5.77
2022-09-21T04:52:47.773Z,6.57
2022-09-21T04:55:16.459Z,5.20
2022-09-21T04:57:44.292Z,6.00
2022-09-21T05:00:14.591Z,5.30
2022-09-21T05:02:42.428Z,5.60
2022-09-21T05:05:10.527Z,6.13
2022-09-21T05:07:38.369Z,5.23
2022-09-21T05:10:06.251Z,6.80
2022-09-21T05:12:39.706Z,5.80
2022-09-21T05:15:10.399Z,6.23
2022-09-21T05:17:39.695Z,6.27
2022-09-21T05:20:08.520Z,7.00
2022-09-21T05:22:36.481Z,6.73
2022-09-21T05:25:04.699Z,4.70
2022-09-21T05:27:32.564Z,5.47
2022-09-21T05:30:00.986Z,6.03
2022-09-21T05:32:38.830Z,7.93
2022-09-21T05:35:17.444Z,8.90
2022-09-21T05:37:51.457Z,6.93
2022-09-21T05:40:20.144Z,7.40
2022-09-21T05:42:48.592Z,4.77
2022-09-21T05:45:18.507Z,6.67
2022-09-21T05:47:57.038Z,6.97
2022-09-21T05:50:38.912Z,4.93
2022-09-21T05:53:29.010Z,6.03
2022-09-21T05:55:58.747Z,6.43
2022-09-21T05:58:34.006Z,5.83
2022-09-21T06:01:18.028Z,5.13
2022-09-21T06:03:48.703Z,6.73
2022-09-21T06:06:18.293Z,9.60
2022-09-21T06:08:46.157Z,6.90
2022-09-21T06:11:14.748Z,6.60
2022-09-21T06:13:42.727Z,5.97
2022-09-21T06:16:10.662Z,6.47
2022-09-21T06:18:39.775Z,6.10
2022-09-21T06:21:08.914Z,8.17
2022-09-21T06:23:38.692Z,6.83
2022-09-21T06:26:06.802Z,9.00
2022-09-21T06:28:34.676Z,9.20
2022-09-21T06:31:02.617Z,6.10
2022-09-21T06:33:30.838Z,9.43
2022-09-21T06:36:00.329Z,6.97
2022-09-21T06:38:29.362Z,8.87
2022-09-21T06:41:02.767Z,9.97
2022-09-21T06:43:31.040Z,10.80
2022-09-21T06:46:00.388Z,9.17
2022-09-21T06:48:29.428Z,11.23
2022-09-21T06:51:00.408Z,9.70
2022-09-21T06:53:29.574Z,12.17
2022-09-21T06:56:03.725Z,11.63
2022-09-21T06:58:34.136Z,10.97
2022-09-21T07:01:07.145Z,11.73
2022-09-21T07:03:35.371Z,10.40
2022-09-21T07:06:03.346Z,9.60
2022-09-21T07:11:20.923Z,11.80
2022-09-21T07:13:48.962Z,11.77
2022-09-21T07:16:16.998Z,12.60
2022-09-21T07:18:44.859Z,10.63
2022-09-21T07:21:14.443Z,14.57
2022-09-21T07:23:42.310Z,11.27
2022-09-21T07:26:11.754Z,11.63
2022-09-21T07:28:41.475Z,12.53
2022-09-21T07:31:11.262Z,10.33
2022-09-21T07:33:39.290Z,10.37
2022-09-21T07:36:10.431Z,9.27
2022-09-21T07:38:40.228Z,8.17
2022-09-21T07:41:08.642Z,11.53
2022-09-21T07:43:39.260Z,12.03
2022-09-21T07:46:09.226Z,10.03
2022-09-21T07:48:37.216Z,14.67
2022-09-21T07:51:06.403Z,8.60
2022-09-21T07:53:34.878Z,10.77
2022-09-21T07:56:04.374Z,6.13
2022-09-21T07:58:50.335Z,5.83
2022-09-21T08:01:19.629Z,9.57
2022-09-21T08:03:50.037Z,7.77
2022-09-21T08:06:18.816Z,8.77
2022-09-21T08:08:48.207Z,6.83
2022-09-21T08:11:17.895Z,7.73
2022-09-21T08:13:45.760Z,6.90
2022-09-21T08:16:13.716Z,6.63
2022-09-21T08:18:43.643Z,9.53
2022-09-21T08:21:12.959Z,9.23
2022-09-21T08:23:43.106Z,8.03
2022-09-21T08:26:16.401Z,5.90
2022-09-21T08:28:44.396Z,5.40
2022-09-21T08:31:12.362Z,7.00
2022-09-21T08:33:40.252Z,8.63
2022-09-21T08:36:10.490Z,9.17
2022-09-21T08:38:40.179Z,7.43
2022-09-21T08:41:17.002Z,4.63
2022-09-21T08:43:46.451Z,3.63
2022-09-21T08:46:18.657Z,4.73
2022-09-21T08:48:50.664Z,4.10
2022-09-21T08:51:25.091Z,6.87
2022-09-21T08:53:57.813Z,3.67
2022-09-21T08:56:47.084Z,5.73
2022-09-21T08:59:16.531Z,3.87
2022-09-21T09:01:58.236Z,4.43
2022-09-21T09:04:43.636Z,3.90
2022-09-21T09:07:26.609Z,4.33
2022-09-21T09:10:14.014Z,5.17
2022-09-21T09:12:56.244Z,4.10
2022-09-21T09:15:49.127Z,5.70
2022-09-21T09:18:25.171Z,4.67
2022-09-21T09:20:58.113Z,6.83
2022-09-21T09:23:29.746Z,5.90
2022-09-21T09:26:02.919Z,3.03
2022-09-21T09:28:37.164Z,4.83
2022-09-21T09:31:11.413Z,5.63
2022-09-21T09:33:51.002Z,4.10
2022-09-21T09:36:34.746Z,4.70
2022-09-21T09:39:12.875Z,4.87
2022-09-21T09:41:59.059Z,6.33
2022-09-21T09:44:44.453Z,4.77
2022-09-21T09:47:18.903Z,6.50
2022-09-21T09:50:00.112Z,3.03
2022-09-21T09:52:28.667Z,6.13
2022-09-21T09:54:58.839Z,3.73
2022-09-21T09:57:31.276Z,7.33
2022-09-21T10:00:03.759Z,3.77
2022-09-21T10:02:48.162Z,3.83
2022-09-21T10:05:22.712Z,4.27
2022-09-21T10:07:51.886Z,6.77
2022-09-21T10:10:34.206Z,6.37
2022-09-21T10:13:14.298Z,3.50
2022-09-21T10:15:45.913Z,2.20
2022-09-21T10:18:20.075Z,3.17
2022-09-21T10:20:59.271Z,3.77
2022-09-21T10:23:28.223Z,5.17
2022-09-21T10:26:04.032Z,5.53
2022-09-21T10:28:32.651Z,4.70
2022-09-21T10:31:17.651Z,3.63
2022-09-21T10:33:51.028Z,6.23
2022-09-21T10:36:33.791Z,3.83
2022-09-21T10:39:23.618Z,1.53
2022-09-21T10:41:55.747Z,3.70
2022-09-21T10:44:27.439Z,4.43
2022-09-21T10:49:30.328Z,4.43
2022-09-21T10:52:00.031Z,5.93
2022-09-21T10:54:32.500Z,4.60
2022-09-21T10:57:05.103Z,4.13
2022-09-21T10:59:34.399Z,2.40
2022-09-21T11:02:08.791Z,2.20
2022-09-21T11:04:42.644Z,3.73
2022-09-21T11:07:20.228Z,7.80
2022-09-21T11:09:55.857Z,3.97
2022-09-21T11:12:36.365Z,3.23
2022-09-21T11:15:16.759Z,3.63
2022-09-21T11:17:50.678Z,2.57
2022-09-21T11:20:29.400Z,1.93
2022-09-21T11:23:04.259Z,3.53
2022-09-21T11:25:38.049Z,4.73
2022-09-21T11:28:15.547Z,3.60
2022-09-21T11:31:03.421Z,1.70
2022-09-21T11:33:47.338Z,4.77
2022-09-21T11:36:20.576Z,3.47
2022-09-21T11:38:58.225Z,1.83
2022-09-21T11:41:56.251Z,2.43
2022-09-21T11:44:43.555Z,2.27
2022-09-21T11:47:27.827Z,4.43
2022-09-21T11:50:29.647Z,3.27
2022-09-21T11:53:11.182Z,4.10
2022-09-21T11:56:05.307Z,3.60
2022-09-21T11:58:39.615Z,3.03
2022-09-21T12:01:18.607Z,5.13
2022-09-21T12:04:02.071Z,3.77
2022-09-21T12:06:44.279Z,4.37
2022-09-21T12:09:28.653Z,4.77
2022-09-21T12:12:03.340Z,3.03
2022-09-21T12:17:16.744Z,4.53
2022-09-21T12:19:51.095Z,2.30
2022-09-21T12:22:23.130Z,2.97
2022-09-21T12:24:53.899Z,3.93
2022-09-21T12:27:28.646Z,5.63
2022-09-21T12:30:00.564Z,2.93
2022-09-21T12:32:49.471Z,3.87
2022-09-21T12:35:22.267Z,5.60
2022-09-21T12:37:55.595Z,5.43
2022-09-21T12:40:29.041Z,3.43
2022-09-21T12:43:04.162Z,3.37
2022-09-21T12:45:38.207Z,2.80
2022-09-21T12:48:11.786Z,5.17
2022-09-21T12:50:45.362Z,5.23
2022-09-21T12:53:18.961Z,4.23
2022-09-21T12:55:55.748Z,3.20
2022-09-21T12:58:44.071Z,3.47
2022-09-21T13:01:32.494Z,1.93
2022-09-21T13:04:26.522Z,3.00
2022-09-21T13:07:32.754Z,5.87
2022-09-21T13:10:08.297Z,3.57
2022-09-21T13:12:44.125Z,4.97
2022-09-21T13:15:17.987Z,3.87
2022-09-21T13:17:45.970Z,2.60
2022-09-21T13:20:21.183Z,3.73
2022-09-21T13:22:50.377Z,5.00
2022-09-21T13:25:23.780Z,4.33
2022-09-21T13:28:04.409Z,2.13
2022-09-21T13:30:37.050Z,5.27
2022-09-21T13:33:26.615Z,4.07
2022-09-21T13:36:03.791Z,1.90
2022-09-21T13:38:37.276Z,1.93
2022-09-21T13:41:35.521Z,5.93
2022-09-21T13:44:40.248Z,3.40
2022-09-21T13:47:10.053Z,5.20
2022-09-21T13:49:45.036Z,3.63
2022-09-21T13:52:44.697Z,2.70
2022-09-21T13:55:28.288Z,4.23
2022-09-21T13:57:58.828Z,3.37
2022-09-21T14:00:36.951Z,5.00
2022-09-21T14:03:18.114Z,2.80
2022-09-21T14:05:47.817Z,4.13
2022-09-21T14:08:27.563Z,4.00
2022-09-21T14:10:59.836Z,5.07
2022-09-21T14:13:33.652Z,5.10
2022-09-21T14:16:27.345Z,3.17
2022-09-21T14:18:55.386Z,4.30
2022-09-21T14:21:23.793Z,8.47
2022-09-21T14:24:20.962Z,5.53
2022-09-21T14:26:55.161Z,3.80
2022-09-21T14:29:26.631Z,5.60
2022-09-21T14:31:58.062Z,5.73
2022-09-21T14:34:28.451Z,4.97
2022-09-21T14:36:59.743Z,3.97
2022-09-21T14:39:33.018Z,3.40
2022-09-21T14:42:04.628Z,3.93
2022-09-21T14:44:35.312Z,5.63
2022-09-21T14:47:29.462Z,6.07
2022-09-21T14:50:19.550Z,4.60
2022-09-21T14:53:14.674Z,4.17
2022-09-21T14:55:57.005Z,3.47
2022-09-21T14:58:35.807Z,4.53
2022-09-21T15:01:22.865Z,4.87
2022-09-21T15:04:09.559Z,5.63
2022-09-21T15:07:00.269Z,5.77
2022-09-21T15:10:02.795Z,5.67
2022-09-21T15:12:40.446Z,4.23
2022-09-21T15:15:24.190Z,4.97
2022-09-21T15:17:59.291Z,5.63
2022-09-21T15:20:29.407Z,5.80
2022-09-21T15:22:58.353Z,4.13
2022-09-21T15:25:28.652Z,6.53
2022-09-21T15:27:58.061Z,5.80
2022-09-21T15:30:28.574Z,5.53
2022-09-21T15:32:58.335Z,5.33
2022-09-21T15:35:28.322Z,5.30
2022-09-21T15:37:57.424Z,5.13
2022-09-21T15:40:45.963Z,4.63
2022-09-21T15:43:20.529Z,4.80
2022-09-21T15:45:54.498Z,5.13
2022-09-21T15:48:22.863Z,5.60
2022-09-21T15:51:12.633Z,5.33
2022-09-21T15:53:45.642Z,3.47
2022-09-21T15:56:20.790Z,6.17
2022-09-21T15:58:50.694Z,5.40
2022-09-21T16:01:23.525Z,4.30
2022-09-21T16:04:04.151Z,4.20
2022-09-21T16:06:37.847Z,5.00
2022-09-21T16:09:44.937Z,8.00
2022-09-21T16:12:44.412Z,6.33
2022-09-21T16:15:28.287Z,5.83
2022-09-21T16:18:02.770Z,3.63
2022-09-21T16:20:45.731Z,5.50
2022-09-21T16:23:16.600Z,4.03
2022-09-21T16:25:45.162Z,5.30
2022-09-21T16:28:37.697Z,4.90
2022-09-21T16:31:29.815Z,7.80
2022-09-21T16:34:04.710Z,5.23
2022-09-21T16:36:42.821Z,4.23
2022-09-21T16:39:15.475Z,4.10
2022-09-21T16:41:48.237Z,4.63
2022-09-21T16:44:20.795Z,5.53
2022-09-21T16:46:54.689Z,7.87
2022-09-21T16:49:29.981Z,2.90
2022-09-21T16:51:59.251Z,6.33
2022-09-21T16:54:27.995Z,5.20
2022-09-21T16:56:57.923Z,4.07
2022-09-21T16:59:26.690Z,4.30
2022-09-21T17:01:57.927Z,6.77
2022-09-21T17:04:27.922Z,5.47
2022-09-21T17:06:56.335Z,5.73
2022-09-21T17:09:29.503Z,6.93
2022-09-21T17:12:01.145Z,5.37
2022-09-21T17:14:35.416Z,4.50
2022-09-21T17:17:08.278Z,8.33
2022-09-21T17:19:36.792Z,4.37
2022-09-21T17:22:06.805Z,5.63
2022-09-21T17:24:50.321Z,4.57
2022-09-21T17:27:19.952Z,4.43
2022-09-21T17:29:49.177Z,3.90
2022-09-21T17:32:20.768Z,3.77
2022-09-21T17:34:53.132Z,6.77
2022-09-21T17:37:21.762Z,5.07
2022-09-21T17:39:49.807Z,3.60
2022-09-21T17:42:21.288Z,6.77
2022-09-21T17:45:05.136Z,5.13
2022-09-21T17:47:34.969Z,4.60
2022-09-21T17:50:16.003Z,6.40
2022-09-21T17:53:03.075Z,4.13
2022-09-21T17:55:32.085Z,4.67
2022-09-21T17:58:23.231Z,3.97
2022-09-21T18:00:59.306Z,6.33
2022-09-21T18:03:30.903Z,6.93
2022-09-21T18:06:00.523Z,6.00
2022-09-21T18:08:29.139Z,3.57
2022-09-21T18:11:23.366Z,4.67
2022-09-21T18:13:59.647Z,6.33
2022-09-21T18:16:33.494Z,4.27
2022-09-21T18:19:29.071Z,4.23
2022-09-21T18:22:13.743Z,4.60
2022-09-21T18:24:42.430Z,6.13
2022-09-21T18:27:12.716Z,8.47
2022-09-21T18:29:41.800Z,4.50
2022-09-21T18:32:41.721Z,7.87
2022-09-21T18:35:28.173Z,8.60
2022-09-21T18:38:05.515Z,4.67
2022-09-21T18:40:41.290Z,5.63
2022-09-21T18:43:34.952Z,5.67
2022-09-21T18:46:06.934Z,3.93
2022-09-21T18:48:50.738Z,6.47
2022-09-21T18:51:24.919Z,5.40
2022-09-21T18:53:56.288Z,6.77
2022-09-21T18:56:25.308Z,8.00
2022-09-21T18:58:53.873Z,6.27
2022-09-21T19:01:23.669Z,5.73
2022-09-21T19:03:52.167Z,6.43
2022-09-21T19:06:30.297Z,5.83
2022-09-21T19:09:07.757Z,6.50
2022-09-21T19:11:44.531Z,4.47
2022-09-21T19:14:22.172Z,7.73
2022-09-21T19:17:05.882Z,6.93
2022-09-21T19:19:41.087Z,7.30
2022-09-21T19:22:15.554Z,6.33
2022-09-21T19:24:56.055Z,6.90
2022-09-21T19:27:33.799Z,9.17
2022-09-21T19:30:06.448Z,7.00
2022-09-21T19:32:41.860Z,5.27
2022-09-21T19:35:24.650Z,6.27
2022-09-21T19:37:56.098Z,6.90
2022-09-21T19:40:26.701Z,4.67
2022-09-21T19:43:20.938Z,7.70
2022-09-21T19:46:05.230Z,6.53
2022-09-21T19:48:42.379Z,6.60
2022-09-21T19:51:17.314Z,8.20
2022-09-21T19:54:08.403Z,5.60
2022-09-21T19:56:58.784Z,8.23
2022-09-21T19:59:53.260Z,12.00
2022-09-21T20:02:28.645Z,11.90
2022-09-21T20:04:58.330Z,9.53
2022-09-21T20:07:44.114Z,9.63
2022-09-21T20:10:35.165Z,16.30
2022-09-21T20:13:15.007Z,10.97
2022-09-21T20:15:48.134Z,11.67
2022-09-21T20:18:21.471Z,10.03
2022-09-21T20:20:49.577Z,10.50
2022-09-21T20:23:17.882Z,7.73
2022-09-21T20:25:52.333Z,9.53
2022-09-21T20:28:20.782Z,7.87
2022-09-21T20:30:50.051Z,8.63
2022-09-21T20:33:22.554Z,7.97
2022-09-21T20:35:52.063Z,8.63
2022-09-21T20:38:19.928Z,7.43
2022-09-21T20:40:49.304Z,9.47
2022-09-21T20:43:17.306Z,10.23
2022-09-21T20:45:47.680Z,8.63
2022-09-21T20:48:15.847Z,7.90
2022-09-21T20:50:46.030Z,8.20
2022-09-21T20:53:14.535Z,8.63
2022-09-21T20:55:43.924Z,6.83
2022-09-21T20:58:14.112Z,8.20
2022-09-21T21:00:42.508Z,9.10
2022-09-21T21:03:12.515Z,9.70
2022-09-21T21:05:40.699Z,9.37
2022-09-21T21:08:09.050Z,7.10
2022-09-21T21:10:37.011Z,9.03
2022-09-21T21:13:05.691Z,8.13
2022-09-21T21:15:34.916Z,11.43
2022-09-21T21:18:02.739Z,7.50
2022-09-21T21:20:30.908Z,7.60
2022-09-21T21:22:59.117Z,13.27
2022-09-21T21:25:27.047Z,8.57
2022-09-21T21:27:57.323Z,7.53
2022-09-21T21:30:25.461Z,8.90
2022-09-21T21:32:54.741Z,7.07
2022-09-21T21:35:22.731Z,8.40
2022-09-21T21:37:50.941Z,9.67
2022-09-21T21:40:20.579Z,7.70
2022-09-21T21:42:48.607Z,8.87
2022-09-21T21:45:17.976Z,8.40
2022-09-21T21:47:45.854Z,12.17
2022-09-21T21:50:15.127Z,10.30
2022-09-21T21:52:45.007Z,8.67
2022-09-21T21:55:14.169Z,9.20
2022-09-21T21:57:42.050Z,9.93
2022-09-21T22:00:11.247Z,14.20
2022-09-21T22:02:39.162Z,8.93
2022-09-21T22:05:07.996Z,10.47
2022-09-21T22:07:37.674Z,11.17
2022-09-21T22:10:08.798Z,10.83
2022-09-21T22:12:36.640Z,13.97
2022-09-21T22:15:04.700Z,9.80
2022-09-21T22:17:32.550Z,9.43
2022-09-21T22:20:00.391Z,8.40
2022-09-21T22:22:28.250Z,10.93
2022-09-21T22:24:57.545Z,10.43
2022-09-21T22:27:25.545Z,10.30
2022-09-21T22:29:53.446Z,10.87
2022-09-21T22:32:21.286Z,10.13
2022-09-21T22:34:50.310Z,10.70
2022-09-21T22:37:18.146Z,12.43
2022-09-21T22:39:46.006Z,10.80
2022-09-21T22:42:15.250Z,9.97
2022-09-21T22:44:43.103Z,11.53
2022-09-21T22:47:10.978Z,13.60
2022-09-21T22:49:38.851Z,10.37
2022-09-21T22:52:07.209Z,11.77
2022-09-21T22:54:35.071Z,10.80
2022-09-21T22:57:02.988Z,12.10
2022-09-21T22:59:32.198Z,12.43
2022-09-21T23:02:00.106Z,11.63
2022-09-21T23:04:28.119Z,12.03
2022-09-21T23:06:56.079Z,13.60
2022-09-21T23:09:23.963Z,12.07
2022-09-21T23:11:53.726Z,12.20
2022-09-21T23:14:22.424Z,11.77
2022-09-21T23:16:51.741Z,12.00
2022-09-21T23:19:19.612Z,12.23
2022-09-21T23:21:50.279Z,11.57
2022-09-21T23:24:19.141Z,12.43
2022-09-21T23:26:47.938Z,11.97
2022-09-21T23:29:16.691Z,13.23
2022-09-21T23:31:46.300Z,14.43
2022-09-21T23:34:16.727Z,11.33
2022-09-21T23:36:45.760Z,13.27
2022-09-21T23:39:15.197Z,12.73
2022-09-21T23:41:43.725Z,12.83
2022-09-21T23:44:11.751Z,12.60
2022-09-21T23:46:40.963Z,15.37
2022-09-21T23:49:09.261Z,12.30
2022-09-21T23:51:38.634Z,14.00
2022-09-21T23:54:06.728Z,15.33
2022-09-21T23:56:35.042Z,14.73
2022-09-21T23:59:03.051Z,11.47
